Time;durP1;ratioP1;P1;durP2;ratioP2;P2;SDS_P1;SDS_P2;PMS_P1;PMS_P2;Temp;Humidity;BMP_temperature;BMP_pressure;BME280_temperature;BME280_humidity;BME280_pressure;Samples;Min_cycle;Max_cycle;Signal;HPM_P1;HPM_P2
2023/12/23 00:01:03;;;;;;;5.00;1.07;;;4.00;99.90;;;;;;6306036;22;20194;-84
2023/12/23 00:03:29;;;;;;;7.07;1.17;;;4.10;99.90;;;;;;6307451;22;20457;-84
2023/12/23 00:05:55;;;;;;;11.60;1.40;;;3.90;99.90;;;;;;6309116;22;20563;-83
2023/12/23 00:08:21;;;;;;;5.63;1.47;;;3.90;99.90;;;;;;6308635;22;20196;-82
2023/12/23 00:10:47;;;;;;;5.23;0.97;;;3.90;99.90;;;;;;6308716;22;20159;-84
2023/12/23 00:13:12;;;;;;;5.20;1.00;;;3.90;99.90;;;;;;6308425;22;20155;-84
2023/12/23 00:15:38;;;;;;;5.43;1.27;;;3.80;99.90;;;;;;6280836;22;20163;-81
2023/12/23 00:18:04;;;;;;;6.10;1.00;;;3.70;99.90;;;;;;6281409;22;20200;-84
2023/12/23 00:20:30;;;;;;;6.23;1.27;;;3.70;99.90;;;;;;6308376;22;20466;-84
2023/12/23 00:22:56;;;;;;;2.47;1.07;;;3.70;99.90;;;;;;6280161;22;20156;-83
2023/12/23 00:25:22;;;;;;;4.63;1.20;;;3.70;99.90;;;;;;6308059;22;20162;-80
2023/12/23 00:27:47;;;;;;;3.73;1.03;;;3.80;99.90;;;;;;6309295;22;20612;-81
2023/12/23 00:30:15;;;;;;;10.57;1.30;;;3.80;99.90;;;;;;6281622;22;20155;-82
2023/12/23 00:32:41;;;;;;;5.37;1.40;;;3.80;99.90;;;;;;6280853;22;20156;-83
2023/12/23 00:35:08;;;;;;;7.50;1.13;;;3.80;99.90;;;;;;6281346;22;20152;-83
2023/12/23 00:37:33;;;;;;;6.33;1.23;;;3.90;99.90;;;;;;6308376;22;20229;-81
2023/12/23 00:39:59;;;;;;;8.83;1.73;;;3.80;99.90;;;;;;6307786;22;20188;-81
2023/12/23 00:42:25;;;;;;;9.27;1.50;;;3.80;99.90;;;;;;6280711;22;20152;-82
2023/12/23 00:44:51;;;;;;;5.57;1.00;;;3.80;99.90;;;;;;6280728;22;20239;-82
2023/12/23 00:47:16;;;;;;;8.90;1.80;;;3.80;99.90;;;;;;6281226;22;20624;-82
2023/12/23 00:49:44;;;;;;;10.20;1.90;;;3.70;99.90;;;;;;6281542;22;20227;-84
2023/12/23 00:52:10;;;;;;;5.93;1.17;;;3.70;99.90;;;;;;6280895;22;20199;-81
2023/12/23 00:54:36;;;;;;;9.00;1.67;;;3.70;99.90;;;;;;6281012;22;20159;-83
2023/12/23 00:57:02;;;;;;;8.37;1.50;;;3.70;99.90;;;;;;6281152;22;20160;-82
2023/12/23 00:59:28;;;;;;;8.63;1.80;;;3.80;99.90;;;;;;6282454;22;20487;-82
2023/12/23 01:01:56;;;;;;;9.03;1.70;;;3.80;99.90;;;;;;6282934;22;20648;-83
2023/12/23 01:04:22;;;;;;;3.63;1.20;;;3.80;99.90;;;;;;6310758;22;20205;-83
2023/12/23 01:06:49;;;;;;;7.33;1.60;;;3.70;99.90;;;;;;6283244;22;20160;-81
2023/12/23 01:09:15;;;;;;;6.13;1.53;;;3.60;99.90;;;;;;6298148;22;20222;-85
2023/12/23 01:11:41;;;;;;;9.53;1.83;;;3.50;99.90;;;;;;6262041;22;20194;-86
2023/12/23 01:14:06;;;;;;;7.43;1.23;;;3.50;99.90;;;;;;6281770;22;20202;-88
2023/12/23 01:16:32;;;;;;;12.10;1.90;;;3.50;99.90;;;;;;6282153;22;20159;-87
2023/12/23 01:18:58;;;;;;;10.93;1.93;;;3.40;99.90;;;;;;6310888;22;20178;-88
2023/12/23 01:21:24;;;;;;;18.23;1.67;;;3.30;99.90;;;;;;6310689;22;20597;-88
2023/12/23 01:23:50;;;;;;;10.67;2.40;;;3.30;99.90;;;;;;6283330;22;20575;-88
2023/12/23 01:26:15;;;;;;;8.40;1.30;;;3.30;99.90;;;;;;6283548;22;20152;-88
2023/12/23 01:28:41;;;;;;;11.40;1.53;;;3.20;99.90;;;;;;6310402;22;20460;-87
2023/12/23 01:31:07;;;;;;;9.53;1.53;;;3.20;99.90;;;;;;6311150;22;20148;-88
2023/12/23 01:33:33;;;;;;;6.47;1.30;;;3.20;99.90;;;;;;6310711;22;20148;-88
2023/12/23 01:35:58;;;;;;;9.30;1.90;;;3.20;99.90;;;;;;6283142;22;20152;-88
2023/12/23 01:38:24;;;;;;;9.40;1.67;;;3.20;99.90;;;;;;6311073;22;20206;-90
2023/12/23 01:40:50;;;;;;;7.60;1.50;;;3.10;99.90;;;;;;6282520;22;20162;-88
2023/12/23 01:43:16;;;;;;;7.57;1.30;;;3.00;99.90;;;;;;6283245;22;20162;-88
2023/12/23 01:45:42;;;;;;;7.60;1.27;;;3.00;99.90;;;;;;6311073;22;20163;-89
2023/12/23 01:48:10;;;;;;;7.23;1.57;;;2.90;99.90;;;;;;6283794;22;20194;-89
2023/12/23 01:50:37;;;;;;;5.90;1.30;;;2.90;99.90;;;;;;6311002;22;20143;-89
2023/12/23 01:53:04;;;;;;;5.47;1.37;;;2.90;99.90;;;;;;6310876;22;20155;-89
2023/12/23 01:55:33;;;;;;;4.93;1.47;;;2.80;99.90;;;;;;6310832;22;20168;-89
2023/12/23 01:57:59;;;;;;;10.30;1.53;;;2.80;99.90;;;;;;6310966;22;20151;-89
2023/12/23 02:00:24;;;;;;;7.60;1.20;;;2.80;99.90;;;;;;6283408;22;20159;-91
2023/12/23 02:02:50;;;;;;;4.67;1.20;;;2.80;99.90;;;;;;6310350;22;20144;-88
2023/12/23 02:05:16;;;;;;;8.00;1.40;;;2.80;99.90;;;;;;6283729;22;20194;-89
2023/12/23 02:07:45;;;;;;;6.67;1.33;;;2.80;99.90;;;;;;6310398;22;20144;-89
2023/12/23 02:10:12;;;;;;;8.03;1.57;;;2.70;99.90;;;;;;6283512;22;20579;-89
2023/12/23 02:12:40;;;;;;;6.47;1.17;;;2.60;99.90;;;;;;6310619;22;20598;-91
2023/12/23 02:15:14;;;;;;;9.67;1.60;;;2.70;99.90;;;;;;6310811;22;20151;-90
2023/12/23 02:17:40;;;;;;;5.00;1.30;;;2.60;99.90;;;;;;6283165;22;20160;-89
2023/12/23 02:20:07;;;;;;;8.03;1.90;;;2.70;99.90;;;;;;6283685;22;20187;-90
2023/12/23 02:22:33;;;;;;;10.07;1.40;;;2.60;99.90;;;;;;6310527;22;20457;-90
2023/12/23 02:24:59;;;;;;;11.90;1.70;;;2.70;99.90;;;;;;6310761;22;20148;-90
2023/12/23 02:27:33;;;;;;;10.60;1.90;;;2.70;99.90;;;;;;6310087;22;20596;-89
2023/12/23 02:29:59;;;;;;;9.13;1.80;;;2.80;99.90;;;;;;6310502;22;20141;-89
2023/12/23 02:32:27;;;;;;;10.10;1.47;;;2.80;99.90;;;;;;6283535;22;20289;-90
2023/12/23 02:35:04;;;;;;;8.77;1.20;;;2.90;99.90;;;;;;6310493;22;20445;-90
2023/12/23 02:37:29;;;;;;;8.07;1.47;;;2.90;99.90;;;;;;6310315;22;20147;-89
2023/12/23 02:39:55;;;;;;;9.27;1.60;;;3.00;99.90;;;;;;6310511;22;20180;-90
2023/12/23 02:42:21;;;;;;;11.43;1.37;;;3.00;99.90;;;;;;6309976;22;20551;-90
2023/12/23 02:44:47;;;;;;;11.10;1.63;;;3.10;99.90;;;;;;6282810;22;20160;-90
2023/12/23 02:47:13;;;;;;;7.57;1.70;;;3.10;99.90;;;;;;6282581;22;20183;-90
2023/12/23 02:49:38;;;;;;;11.27;1.57;;;3.20;99.90;;;;;;6283454;22;20903;-90
2023/12/23 02:52:04;;;;;;;10.57;1.60;;;3.20;99.90;;;;;;6311299;22;20151;-89
2023/12/23 02:54:30;;;;;;;7.20;1.60;;;3.20;99.90;;;;;;6310557;22;20155;-90
2023/12/23 02:56:56;;;;;;;11.53;1.77;;;3.20;99.90;;;;;;6283290;22;20607;-89
2023/12/23 02:59:22;;;;;;;10.57;1.40;;;3.30;99.90;;;;;;6310829;22;20191;-90
2023/12/23 03:01:48;;;;;;;9.53;1.47;;;3.20;99.90;;;;;;6283176;22;20152;-91
2023/12/23 03:04:17;;;;;;;13.13;1.97;;;3.20;99.90;;;;;;6282677;22;20278;-89
2023/12/23 03:06:43;;;;;;;8.03;1.63;;;3.20;99.90;;;;;;6282394;22;20152;-92
2023/12/23 03:09:09;;;;;;;9.17;1.37;;;3.30;99.90;;;;;;6283060;22;20158;-92
2023/12/23 03:11:37;;;;;;;13.00;1.60;;;3.10;99.90;;;;;;6283079;22;20152;-89
2023/12/23 03:14:03;;;;;;;15.27;1.87;;;3.20;99.90;;;;;;6282296;22;20172;-90
2023/12/23 03:16:33;;;;;;;10.10;1.70;;;3.20;99.90;;;;;;6282805;22;20160;-90
2023/12/23 03:19:03;;;;;;;11.17;2.20;;;3.30;99.90;;;;;;6283031;22;20172;-90
2023/12/23 03:21:30;;;;;;;8.73;1.47;;;3.40;99.90;;;;;;6310175;22;20201;-91
2023/12/23 03:23:56;;;;;;;16.57;2.33;;;3.30;99.90;;;;;;6310576;22;20194;-91
2023/12/23 03:26:22;;;;;;;7.53;1.57;;;3.50;99.90;;;;;;6282828;22;20160;-89
2023/12/23 03:28:48;;;;;;;8.47;1.33;;;3.40;99.90;;;;;;6309952;22;20136;-92
2023/12/23 03:31:13;;;;;;;10.37;2.17;;;3.50;99.90;;;;;;6282678;22;20167;-90
2023/12/23 03:33:40;;;;;;;8.23;1.60;;;3.50;99.90;;;;;;6309876;22;20151;-91
2023/12/23 03:36:06;;;;;;;16.63;1.60;;;3.40;99.90;;;;;;6282915;22;20167;-92
2023/12/23 03:38:32;;;;;;;12.27;2.17;;;3.40;99.90;;;;;;6282680;22;20179;-90
2023/12/23 03:40:58;;;;;;;13.03;2.03;;;3.50;99.90;;;;;;6282994;22;20206;-90
2023/12/23 03:43:23;;;;;;;9.00;2.03;;;3.50;99.90;;;;;;6309337;22;20360;-88
2023/12/23 03:45:50;;;;;;;16.60;2.57;;;3.50;99.90;;;;;;6309684;22;20148;-90
2023/12/23 03:48:16;;;;;;;11.90;2.00;;;3.60;99.90;;;;;;6282981;22;20431;-91
2023/12/23 03:50:43;;;;;;;7.87;1.87;;;3.60;99.90;;;;;;6283066;22;20206;-91
2023/12/23 03:53:08;;;;;;;14.43;2.50;;;3.60;99.90;;;;;;6309524;22;20148;-90
2023/12/23 03:55:41;;;;;;;10.73;2.20;;;3.60;99.90;;;;;;6309966;22;20191;-95
2023/12/23 03:58:07;;;;;;;13.27;2.33;;;3.70;99.90;;;;;;6309420;22;20443;-92
2023/12/23 04:00:33;;;;;;;15.60;2.03;;;3.80;99.90;;;;;;6282173;22;20163;-93
2023/12/23 04:02:59;;;;;;;17.33;2.63;;;3.80;99.90;;;;;;6282626;22;20159;-90
2023/12/23 04:05:29;;;;;;;15.17;2.37;;;3.80;99.90;;;;;;6282563;22;20461;-91
2023/12/23 04:07:55;;;;;;;12.00;2.17;;;3.90;99.90;;;;;;6282314;22;20144;-91
2023/12/23 04:10:21;;;;;;;13.57;1.97;;;3.80;99.90;;;;;;6309876;22;20208;-91
2023/12/23 04:12:47;;;;;;;11.17;2.07;;;3.80;99.90;;;;;;6267105;22;20203;-91
2023/12/23 04:15:15;;;;;;;10.50;2.17;;;3.80;99.90;;;;;;6251585;22;20153;-89
2023/12/23 04:17:41;;;;;;;9.60;2.00;;;3.90;99.90;;;;;;6251188;22;20153;-89
2023/12/23 04:20:07;;;;;;;13.50;1.87;;;4.00;99.90;;;;;;6251715;22;20196;-92
2023/12/23 04:22:33;;;;;;;11.37;1.97;;;4.10;99.90;;;;;;6251505;22;20215;-92
2023/12/23 04:25:00;;;;;;;14.73;2.13;;;4.10;99.90;;;;;;6278492;22;20183;-89
2023/12/23 04:27:26;;;;;;;5.70;1.30;;;4.20;99.90;;;;;;6250772;22;20160;-90
2023/12/23 04:29:52;;;;;;;15.13;2.23;;;4.10;99.90;;;;;;6251352;22;20153;-89
2023/12/23 04:32:18;;;;;;;9.90;1.70;;;4.10;99.90;;;;;;6277834;22;20152;-89
2023/12/23 04:34:43;;;;;;;17.27;2.63;;;4.20;99.90;;;;;;6279304;22;20464;-89
2023/12/23 04:37:09;;;;;;;7.30;1.80;;;4.20;99.90;;;;;;6280316;22;20149;-89
2023/12/23 04:39:35;;;;;;;12.67;1.93;;;4.20;99.90;;;;;;6253917;22;20192;-90
2023/12/23 04:42:01;;;;;;;10.40;1.70;;;4.20;99.90;;;;;;6280665;22;20149;-88
2023/12/23 04:44:28;;;;;;;11.23;2.00;;;4.10;99.90;;;;;;6279889;22;20208;-88
2023/12/23 04:46:55;;;;;;;7.97;1.67;;;4.00;99.90;;;;;;6253280;22;20601;-88
2023/12/23 04:49:21;;;;;;;13.20;1.50;;;4.00;99.90;;;;;;6280560;22;20141;-88
2023/12/23 04:51:46;;;;;;;8.70;1.90;;;4.00;99.90;;;;;;6280186;22;20153;-90
2023/12/23 04:54:13;;;;;;;6.43;1.40;;;4.00;99.90;;;;;;6253136;22;20232;-89
2023/12/23 04:56:39;;;;;;;12.73;1.77;;;4.00;99.90;;;;;;6252507;22;20206;-89
2023/12/23 04:59:06;;;;;;;6.77;1.80;;;3.90;99.90;;;;;;6279445;22;20176;-88
2023/12/23 05:01:32;;;;;;;9.30;1.20;;;3.80;99.90;;;;;;6253177;22;20153;-88
2023/12/23 05:03:57;;;;;;;10.33;1.40;;;3.70;99.90;;;;;;6252803;22;20168;-87
2023/12/23 05:06:24;;;;;;;4.47;0.90;;;3.80;99.90;;;;;;6252684;22;20149;-87
2023/12/23 05:08:50;;;;;;;16.87;1.73;;;3.80;99.90;;;;;;6253081;22;20157;-88
2023/12/23 05:11:16;;;;;;;8.87;1.80;;;3.80;99.90;;;;;;6279769;22;20151;-87
2023/12/23 05:13:42;;;;;;;12.87;2.37;;;3.70;99.90;;;;;;6252534;22;20203;-88
2023/12/23 05:16:15;;;;;;;14.73;1.97;;;3.70;99.90;;;;;;6280469;22;20432;-88
2023/12/23 05:18:41;;;;;;;6.47;1.33;;;3.60;99.90;;;;;;6253124;22;20275;-88
2023/12/23 05:21:07;;;;;;;6.53;1.50;;;3.50;99.90;;;;;;6252868;22;20191;-89
2023/12/23 05:23:33;;;;;;;7.97;1.87;;;3.50;99.90;;;;;;6252816;22;20215;-87
2023/12/23 05:26:01;;;;;;;10.10;1.67;;;3.60;99.90;;;;;;6252546;22;20156;-91
2023/12/23 05:28:26;;;;;;;7.50;1.73;;;3.50;99.90;;;;;;6279473;22;20139;-89
2023/12/23 05:30:52;;;;;;;7.57;1.60;;;3.70;99.90;;;;;;6280226;22;20153;-88
2023/12/23 05:33:19;;;;;;;10.27;3.10;;;3.70;99.90;;;;;;6280117;22;20151;-89
2023/12/23 05:35:45;;;;;;;9.23;1.60;;;3.70;99.90;;;;;;6280305;22;20148;-89
2023/12/23 05:38:11;;;;;;;8.37;1.33;;;3.60;99.90;;;;;;6252676;22;20152;-89
2023/12/23 05:40:37;;;;;;;6.63;1.10;;;3.70;99.90;;;;;;6252690;22;20250;-89
2023/12/23 05:43:03;;;;;;;3.93;1.37;;;3.70;99.90;;;;;;6252397;22;20156;-89
2023/12/23 05:45:29;;;;;;;10.27;1.60;;;3.70;99.90;;;;;;6280003;22;20230;-90
2023/12/23 05:47:56;;;;;;;11.23;1.80;;;3.80;99.90;;;;;;6252156;22;20156;-89
2023/12/23 05:50:22;;;;;;;9.87;1.57;;;3.80;99.90;;;;;;6252846;22;20152;-88
2023/12/23 05:52:48;;;;;;;7.60;1.67;;;3.80;99.90;;;;;;6253202;22;20157;-89
2023/12/23 05:55:14;;;;;;;14.20;2.37;;;3.80;99.90;;;;;;6252089;22;20164;-88
2023/12/23 05:57:41;;;;;;;4.43;1.53;;;3.80;99.90;;;;;;6252200;22;20152;-88
2023/12/23 06:00:07;;;;;;;8.57;1.53;;;3.70;99.90;;;;;;6279951;22;20180;-89
2023/12/23 06:02:33;;;;;;;9.10;1.63;;;3.70;99.90;;;;;;6280003;22;20171;-88
2023/12/23 06:04:59;;;;;;;9.40;1.77;;;3.70;99.90;;;;;;6279836;22;20564;-89
2023/12/23 06:07:25;;;;;;;7.97;1.47;;;3.70;99.90;;;;;;6279696;22;20153;-89
2023/12/23 06:09:51;;;;;;;6.43;1.50;;;3.70;99.90;;;;;;6280209;22;20141;-89
2023/12/23 06:12:16;;;;;;;4.20;1.20;;;3.60;99.90;;;;;;6252114;22;20275;-89
2023/12/23 06:14:42;;;;;;;9.27;1.90;;;3.70;99.90;;;;;;6253265;22;20235;-90
2023/12/23 06:17:15;;;;;;;8.43;1.60;;;3.70;99.90;;;;;;6252539;22;20448;-89
2023/12/23 06:19:41;;;;;;;4.40;0.77;;;3.70;99.90;;;;;;6280112;22;20607;-89
2023/12/23 06:22:07;;;;;;;8.37;1.20;;;3.70;99.90;;;;;;6253018;22;20157;-88
2023/12/23 06:24:33;;;;;;;8.07;1.27;;;3.70;99.90;;;;;;6252850;22;20587;-88
2023/12/23 06:27:02;;;;;;;4.73;1.10;;;3.60;99.90;;;;;;6252438;22;20152;-88
2023/12/23 06:29:30;;;;;;;8.40;1.40;;;3.50;99.90;;;;;;6279551;22;20144;-87
2023/12/23 06:32:00;;;;;;;3.70;0.90;;;3.50;99.90;;;;;;6279207;22;20167;-88
2023/12/23 06:34:25;;;;;;;5.30;1.17;;;3.50;99.90;;;;;;6252725;22;20525;-87
2023/12/23 06:36:52;;;;;;;6.93;1.33;;;3.40;99.90;;;;;;6252071;22;20186;-88
2023/12/23 06:39:18;;;;;;;4.47;1.30;;;3.40;99.90;;;;;;6252442;22;20199;-88
2023/12/23 06:41:45;;;;;;;3.70;1.20;;;3.40;99.90;;;;;;6252077;22;20633;-87
2023/12/23 06:44:11;;;;;;;6.87;1.77;;;3.40;99.90;;;;;;6252055;22;20160;-87
2023/12/23 06:46:37;;;;;;;4.50;1.23;;;3.40;99.90;;;;;;6251627;22;20501;-88
2023/12/23 06:49:03;;;;;;;4.30;1.23;;;3.30;99.90;;;;;;6279530;22;20230;-87
2023/12/23 06:51:29;;;;;;;5.13;1.33;;;3.30;99.90;;;;;;6251737;22;20478;-89
2023/12/23 06:53:56;;;;;;;5.83;1.00;;;3.30;99.90;;;;;;6279188;22;20159;-88
2023/12/23 06:56:22;;;;;;;3.57;0.83;;;3.30;99.90;;;;;;6251498;22;20841;-87
2023/12/23 06:58:50;;;;;;;10.00;1.40;;;3.30;99.90;;;;;;6251791;22;20242;-89
2023/12/23 07:01:16;;;;;;;6.37;1.07;;;3.30;99.90;;;;;;6252782;22;20159;-89
2023/12/23 07:03:42;;;;;;;5.37;1.30;;;3.30;99.90;;;;;;6279163;22;20152;-89
2023/12/23 07:06:12;;;;;;;8.43;1.53;;;3.40;99.90;;;;;;6251693;22;20195;-88
2023/12/23 07:08:40;;;;;;;4.60;1.13;;;3.30;99.90;;;;;;6252548;22;20575;-90
2023/12/23 07:11:10;;;;;;;5.77;1.30;;;3.30;99.90;;;;;;6279050;22;20141;-89
2023/12/23 07:13:36;;;;;;;9.07;1.53;;;3.20;99.90;;;;;;6251920;22;20615;-89
2023/12/23 07:16:02;;;;;;;5.93;1.87;;;3.20;99.90;;;;;;6278755;22;20152;-90
2023/12/23 07:18:34;;;;;;;8.27;1.67;;;3.20;99.90;;;;;;6278793;22;20425;-90
2023/12/23 07:21:00;;;;;;;6.10;1.33;;;3.10;99.90;;;;;;6279443;22;20232;-90
2023/12/23 07:23:26;;;;;;;7.03;1.30;;;3.10;99.90;;;;;;6278766;22;20145;-90
2023/12/23 07:25:52;;;;;;;5.40;1.30;;;3.10;99.90;;;;;;6279177;22;20611;-90
2023/12/23 07:28:21;;;;;;;4.63;1.10;;;3.10;99.90;;;;;;6278365;22;20144;-90
2023/12/23 07:30:46;;;;;;;5.60;1.37;;;3.10;99.90;;;;;;6279268;22;20145;-90
2023/12/23 07:33:13;;;;;;;10.93;1.90;;;3.10;99.90;;;;;;6251988;22;20572;-89
2023/12/23 07:35:39;;;;;;;7.30;1.10;;;3.00;99.90;;;;;;6251252;22;20218;-90
2023/12/23 07:38:05;;;;;;;2.47;1.00;;;3.00;99.90;;;;;;6250751;22;20152;-89
2023/12/23 07:40:32;;;;;;;4.30;1.13;;;3.00;99.90;;;;;;6251882;22;20185;-88
2023/12/23 07:42:58;;;;;;;4.17;0.87;;;3.00;99.90;;;;;;6251526;22;20163;-88
2023/12/23 07:45:24;;;;;;;2.87;1.00;;;3.00;99.90;;;;;;6251809;22;20214;-88
2023/12/23 07:47:50;;;;;;;3.63;0.97;;;3.10;99.90;;;;;;6277443;22;20544;-89
2023/12/23 07:50:16;;;;;;;6.83;1.23;;;3.00;99.90;;;;;;6251177;22;20149;-89
2023/12/23 07:52:42;;;;;;;4.37;1.20;;;3.00;99.90;;;;;;6251361;22;20164;-88
2023/12/23 07:55:08;;;;;;;3.40;0.90;;;3.00;99.90;;;;;;6278253;22;20202;-87
2023/12/23 07:57:34;;;;;;;4.20;1.00;;;3.00;99.90;;;;;;6250225;22;20187;-88
2023/12/23 08:00:00;;;;;;;2.50;0.90;;;3.00;99.90;;;;;;6277430;22;20250;-88
2023/12/23 08:02:25;;;;;;;3.93;0.93;;;3.00;99.90;;;;;;6250701;22;20152;-88
2023/12/23 08:04:51;;;;;;;5.13;1.10;;;3.00;99.90;;;;;;6250948;22;20478;-88
2023/12/23 08:07:17;;;;;;;5.17;1.50;;;3.00;99.90;;;;;;6250605;22;20152;-87
2023/12/23 08:09:44;;;;;;;5.33;1.33;;;3.00;99.90;;;;;;6250322;22;20243;-88
2023/12/23 08:12:09;;;;;;;4.63;1.37;;;3.00;99.90;;;;;;6250921;22;20196;-88
2023/12/23 08:14:35;;;;;;;6.70;1.20;;;3.00;99.90;;;;;;6250601;22;20164;-88
2023/12/23 08:17:01;;;;;;;4.77;1.60;;;3.00;99.90;;;;;;6250680;22;20163;-89
2023/12/23 08:19:27;;;;;;;7.40;1.30;;;3.10;99.90;;;;;;6277498;22;20203;-87
2023/12/23 08:21:53;;;;;;;4.17;0.80;;;3.10;99.90;;;;;;6277623;22;20224;-87
2023/12/23 08:24:18;;;;;;;2.10;0.90;;;3.10;99.90;;;;;;6250659;22;20152;-87
2023/12/23 08:26:44;;;;;;;2.43;1.03;;;3.10;99.90;;;;;;6277541;22;20155;-88
2023/12/23 08:29:10;;;;;;;4.07;1.10;;;3.10;99.90;;;;;;6250045;22;20153;-88
2023/12/23 08:31:43;;;;;;;4.23;1.10;;;3.10;99.90;;;;;;6250987;22;20163;-88
2023/12/23 08:34:09;;;;;;;4.10;1.10;;;3.20;99.90;;;;;;6250600;22;20214;-87
2023/12/23 08:36:35;;;;;;;6.97;1.57;;;3.20;99.90;;;;;;6250468;22;20166;-87
2023/12/23 08:39:01;;;;;;;1.80;0.90;;;3.20;99.90;;;;;;6277012;22;20557;-87
2023/12/23 08:41:27;;;;;;;3.87;1.17;;;3.20;99.90;;;;;;6277723;22;20219;-86
2023/12/23 08:43:53;;;;;;;1.63;0.70;;;3.30;99.90;;;;;;6250265;22;20152;-87
2023/12/23 08:46:19;;;;;;;3.47;1.10;;;3.30;99.90;;;;;;6250309;22;20231;-87
2023/12/23 08:48:45;;;;;;;2.97;1.00;;;3.30;99.90;;;;;;6250231;22;20164;-86
2023/12/23 08:51:11;;;;;;;2.13;0.77;;;3.30;99.90;;;;;;6250331;22;20297;-87
2023/12/23 08:53:37;;;;;;;2.13;1.00;;;3.30;99.90;;;;;;6277258;22;20237;-86
2023/12/23 08:56:05;;;;;;;1.23;0.80;;;3.30;99.90;;;;;;6250644;22;20157;-86
2023/12/23 08:58:32;;;;;;;2.10;0.90;;;3.30;99.90;;;;;;6276620;22;20578;-88
2023/12/23 09:00:58;;;;;;;0.70;0.60;;;3.30;99.90;;;;;;6250603;22;20217;-88
2023/12/23 09:03:23;;;;;;;1.10;0.60;;;3.30;99.90;;;;;;6251195;22;20153;-89
2023/12/23 09:05:50;;;;;;;1.53;0.57;;;3.30;99.90;;;;;;6250264;22;20160;-88
2023/12/23 09:08:17;;;;;;;1.97;0.90;;;3.40;99.90;;;;;;6250254;22;20160;-88
2023/12/23 09:10:45;;;;;;;1.93;0.60;;;3.30;99.90;;;;;;6251205;22;20460;-90
2023/12/23 09:13:10;;;;;;;2.00;1.00;;;3.40;99.90;;;;;;6250335;22;20207;-88
2023/12/23 09:15:37;;;;;;;1.50;0.80;;;3.40;99.90;;;;;;6250590;22;20164;-88
2023/12/23 09:18:03;;;;;;;1.17;0.97;;;3.40;99.90;;;;;;6250057;22;20152;-87
2023/12/23 09:20:29;;;;;;;2.33;0.90;;;3.40;99.90;;;;;;6277192;22;20207;-87
2023/12/23 09:22:55;;;;;;;2.30;0.80;;;3.50;99.90;;;;;;6279738;22;20141;-86
2023/12/23 09:25:21;;;;;;;2.57;0.73;;;3.50;99.90;;;;;;6250976;22;20164;-88
2023/12/23 09:27:47;;;;;;;1.43;0.60;;;3.50;99.90;;;;;;6279074;22;20172;-87
2023/12/23 09:30:14;;;;;;;5.20;0.70;;;3.50;99.90;;;;;;6251369;22;20575;-88
2023/12/23 09:32:40;;;;;;;1.00;0.67;;;3.50;99.90;;;;;;6279022;22;20614;-86
2023/12/23 09:35:06;;;;;;;4.07;1.43;;;3.40;99.90;;;;;;6250906;22;20153;-88
2023/12/23 09:37:32;;;;;;;2.33;0.60;;;3.40;99.90;;;;;;6251519;22;20152;-88
2023/12/23 09:40:01;;;;;;;1.90;0.90;;;3.40;99.90;;;;;;6252365;22;20188;-89
2023/12/23 09:42:31;;;;;;;1.90;0.63;;;3.40;99.90;;;;;;6278804;22;20194;-87
2023/12/23 09:44:57;;;;;;;1.77;0.73;;;3.40;99.90;;;;;;6278260;22;20575;-88
2023/12/23 09:47:24;;;;;;;3.03;1.30;;;3.40;99.90;;;;;;6250796;22;20187;-88
2023/12/23 09:49:51;;;;;;;1.83;0.97;;;3.40;99.90;;;;;;6252119;22;20206;-88
2023/12/23 09:52:17;;;;;;;0.93;0.67;;;3.40;99.90;;;;;;6250419;22;20222;-87
2023/12/23 09:54:47;;;;;;;1.33;0.93;;;3.40;99.90;;;;;;6248839;22;20167;-86
2023/12/23 09:57:14;;;;;;;1.77;0.80;;;3.50;99.90;;;;;;6251239;22;20153;-86
2023/12/23 09:59:41;;;;;;;2.17;0.70;;;3.50;99.90;;;;;;6278617;22;20238;-87
2023/12/23 10:02:07;;;;;;;1.80;0.50;;;3.50;99.90;;;;;;6250918;22;20156;-86
2023/12/23 10:04:33;;;;;;;1.80;0.60;;;3.50;99.90;;;;;;6250975;22;20471;-87
2023/12/23 10:06:59;;;;;;;0.83;0.60;;;3.50;99.90;;;;;;6249345;22;20245;-86
2023/12/23 10:09:30;;;;;;;0.93;0.60;;;3.40;99.90;;;;;;6251501;22;20459;-86
2023/12/23 10:11:56;;;;;;;3.53;0.90;;;3.50;99.90;;;;;;6281323;22;20148;-87
2023/12/23 10:14:24;;;;;;;2.00;0.50;;;3.50;99.90;;;;;;6309110;22;20505;-87
2023/12/23 10:16:49;;;;;;;4.37;0.70;;;3.50;99.90;;;;;;6280683;22;20160;-86
2023/12/23 10:19:16;;;;;;;1.23;0.40;;;3.40;99.90;;;;;;6281912;22;20259;-87
2023/12/23 10:21:42;;;;;;;0.50;0.40;;;3.50;99.90;;;;;;6281949;22;20183;-86
2023/12/23 10:24:08;;;;;;;1.23;0.50;;;3.50;99.90;;;;;;6256957;22;20156;-87
2023/12/23 10:26:34;;;;;;;0.67;0.50;;;3.60;99.90;;;;;;6279693;22;20514;-87
2023/12/23 10:29:04;;;;;;;2.97;0.83;;;3.50;99.90;;;;;;6308588;22;20175;-86
2023/12/23 10:31:32;;;;;;;3.10;0.87;;;3.50;99.90;;;;;;6279491;22;20152;-85
2023/12/23 10:34:06;;;;;;;1.47;0.90;;;3.50;99.90;;;;;;6279485;22;20156;-87
2023/12/23 10:36:32;;;;;;;1.33;0.80;;;3.60;99.90;;;;;;6281445;22;20553;-85
2023/12/23 10:39:07;;;;;;;2.67;0.60;;;3.60;99.90;;;;;;6281504;22;20199;-86
2023/12/23 10:41:48;;;;;;;2.00;0.60;;;3.60;99.90;;;;;;6308481;22;20226;-86
2023/12/23 10:44:16;;;;;;;0.77;0.60;;;3.60;99.90;;;;;;6308493;22;20140;-87
2023/12/23 10:46:44;;;;;;;1.67;0.50;;;3.60;99.90;;;;;;6308441;22;20159;-87
2023/12/23 10:49:11;;;;;;;1.30;0.90;;;3.50;99.90;;;;;;6309156;22;20156;-87
2023/12/23 10:51:39;;;;;;;1.93;0.70;;;3.60;99.90;;;;;;6282178;22;20585;-86
2023/12/23 10:54:09;;;;;;;0.60;0.50;;;3.60;99.90;;;;;;6280565;22;20595;-85
2023/12/23 10:56:35;;;;;;;0.97;0.50;;;3.60;99.90;;;;;;6281162;22;20564;-86
2023/12/23 10:59:03;;;;;;;2.50;0.63;;;3.60;99.90;;;;;;6280804;22;20195;-86
2023/12/23 11:01:31;;;;;;;0.97;0.67;;;3.60;99.90;;;;;;6308116;22;20555;-86
2023/12/23 11:04:00;;;;;;;1.43;0.53;;;3.60;99.90;;;;;;6281545;22;20441;-86
2023/12/23 11:06:31;;;;;;;0.70;0.50;;;3.60;99.90;;;;;;6281099;22;20201;-86
2023/12/23 11:08:59;;;;;;;0.77;0.70;;;3.60;99.90;;;;;;6281168;22;20151;-86
2023/12/23 11:11:27;;;;;;;2.67;0.60;;;3.60;99.90;;;;;;6309188;22;20156;-87
2023/12/23 11:13:53;;;;;;;0.90;0.67;;;3.60;99.90;;;;;;6308263;22;20192;-86
2023/12/23 11:16:19;;;;;;;1.30;0.50;;;3.70;99.90;;;;;;6308638;22;20152;-85
2023/12/23 11:18:45;;;;;;;1.00;0.50;;;3.70;99.90;;;;;;6308246;22;20210;-86
2023/12/23 11:21:16;;;;;;;1.60;0.73;;;3.80;99.90;;;;;;6281333;22;20164;-86
2023/12/23 11:23:42;;;;;;;0.70;0.60;;;3.80;99.90;;;;;;6281474;22;20151;-86
2023/12/23 11:26:42;;;;;;;1.03;0.73;;;3.80;99.90;;;;;;6308237;22;20567;-86
2023/12/23 11:29:13;;;;;;;0.90;0.60;;;3.80;99.90;;;;;;6308495;22;20166;-86
2023/12/23 11:31:39;;;;;;;0.53;0.53;;;3.70;99.90;;;;;;6308818;22;20159;-85
2023/12/23 11:34:16;;;;;;;3.13;0.70;;;3.70;99.90;;;;;;6280636;22;20156;-86
2023/12/23 11:36:43;;;;;;;1.00;0.70;;;3.70;99.90;;;;;;6280620;22;20163;-85
2023/12/23 11:39:11;;;;;;;0.83;0.60;;;3.70;99.90;;;;;;6280582;22;20191;-85
2023/12/23 11:41:39;;;;;;;1.63;0.80;;;3.80;99.90;;;;;;6308796;22;20148;-85
2023/12/23 11:44:06;;;;;;;3.00;0.83;;;3.80;99.90;;;;;;6279397;22;20170;-85
2023/12/23 11:46:34;;;;;;;1.43;0.70;;;3.80;99.90;;;;;;6280913;22;20154;-86
2023/12/23 11:49:00;;;;;;;1.30;0.80;;;3.80;99.90;;;;;;6280386;22;20176;-86
2023/12/23 11:51:26;;;;;;;0.93;0.63;;;3.80;99.90;;;;;;6281198;22;20559;-86
2023/12/23 11:53:53;;;;;;;0.73;0.70;;;3.80;99.90;;;;;;6280122;22;20168;-84
2023/12/23 11:56:19;;;;;;;1.60;1.20;;;3.80;99.90;;;;;;6308289;22;20144;-85
2023/12/23 11:58:46;;;;;;;1.30;0.80;;;3.80;99.90;;;;;;6278400;22;20183;-85
2023/12/23 12:01:14;;;;;;;1.70;1.10;;;3.90;99.90;;;;;;6308100;22;20178;-86
2023/12/23 12:03:40;;;;;;;1.20;1.00;;;3.80;99.90;;;;;;6280334;22;20174;-86
2023/12/23 12:06:06;;;;;;;1.70;1.00;;;3.80;99.90;;;;;;6280158;22;20551;-85
2023/12/23 12:08:33;;;;;;;1.20;1.00;;;3.90;99.90;;;;;;6280402;22;20156;-85
2023/12/23 12:11:01;;;;;;;1.27;1.17;;;3.90;99.90;;;;;;6308552;22;20198;-86
2023/12/23 12:13:30;;;;;;;1.83;1.20;;;3.90;99.90;;;;;;6279480;22;20195;-85
2023/12/23 12:15:56;;;;;;;2.13;1.60;;;3.90;99.90;;;;;;6280149;22;20156;-85
2023/12/23 12:18:22;;;;;;;3.10;1.80;;;3.90;99.90;;;;;;6307959;22;20144;-85
2023/12/23 12:20:48;;;;;;;1.63;1.53;;;3.90;99.90;;;;;;6307858;22;20163;-85
2023/12/23 12:23:14;;;;;;;2.17;1.70;;;3.80;99.90;;;;;;6280345;22;20205;-84
2023/12/23 12:25:46;;;;;;;1.90;1.60;;;3.80;99.90;;;;;;6281221;22;20450;-90
2023/12/23 12:28:13;;;;;;;2.10;1.50;;;3.80;99.90;;;;;;6307502;22;20507;-81
2023/12/23 12:30:39;;;;;;;2.00;1.80;;;3.80;99.90;;;;;;6280635;22;20234;-82
2023/12/23 12:33:05;;;;;;;2.80;1.60;;;3.90;99.90;;;;;;6279145;22;20160;-82
2023/12/23 12:35:30;;;;;;;3.17;1.80;;;3.80;99.90;;;;;;6278910;22;20156;-83
2023/12/23 12:37:56;;;;;;;2.33;1.60;;;3.80;99.90;;;;;;6307488;22;20152;-83
2023/12/23 12:40:22;;;;;;;2.43;1.80;;;3.80;99.90;;;;;;6307137;22;20255;-83
2023/12/23 12:42:50;;;;;;;3.03;1.80;;;3.90;99.90;;;;;;6307264;22;20155;-83
2023/12/23 12:45:16;;;;;;;2.00;1.67;;;3.90;99.90;;;;;;6279496;22;20152;-83
2023/12/23 12:47:42;;;;;;;2.43;1.90;;;3.90;99.90;;;;;;6280494;22;20151;-82
2023/12/23 12:50:08;;;;;;;1.50;1.40;;;3.90;99.90;;;;;;6307609;22;20223;-82
2023/12/23 12:52:37;;;;;;;2.37;1.70;;;4.00;99.90;;;;;;6280622;22;20252;-83